Time;durP1;ratioP1;P1;durP2;ratioP2;P2;SDS_P1;SDS_P2;PMS_P1;PMS_P2;Temp;Humidity;BMP_temperature;BMP_pressure;BME280_temperature;BME280_humidity;BME280_pressure;Samples;Min_cycle;Max_cycle;Signal;HPM_P1;HPM_P2
2023/01/19 00:01:33;;;;;;;24.42;11.77;;;;;;;0.68;65.81;98082.47;5210194;28;20045;-71
2023/01/19 00:04:23;;;;;;;24.48;11.38;;;;;;;0.41;65.75;98083.38;5229165;28;20048;-71
2023/01/19 00:07:14;;;;;;;24.98;11.63;;;;;;;0.32;66.39;98083.97;5226990;28;20060;-70
2023/01/19 00:10:05;;;;;;;33.53;11.73;;;;;;;0.14;66.89;98099.09;5225284;28;20096;-69
2023/01/19 00:12:56;;;;;;;27.98;11.27;;;;;;;0.30;67.40;98098.91;5227481;28;20049;-71
2023/01/19 00:15:46;;;;;;;34.60;11.00;;;;;;;0.31;67.13;98095.38;5226564;28;20513;-71
2023/01/19 00:18:36;;;;;;;28.88;12.02;;;;;;;0.59;64.89;98101.34;5231034;28;20059;-70
2023/01/19 00:21:26;;;;;;;23.73;11.32;;;;;;;0.73;64.63;98110.84;5246073;28;20051;-71
2023/01/19 00:24:16;;;;;;;21.00;9.50;;;;;;;0.73;64.04;98111.69;5223381;28;20072;-71
2023/01/19 00:27:07;;;;;;;23.25;10.27;;;;;;;0.65;65.07;98109.59;5221962;28;20052;-71
2023/01/19 00:29:57;;;;;;;26.23;10.20;;;;;;;0.90;63.06;98105.31;5225369;28;20128;-70
2023/01/19 00:32:47;;;;;;;20.30;9.77;;;;;;;0.91;62.97;98113.03;5227559;28;20055;-69
2023/01/19 00:35:38;;;;;;;24.75;10.20;;;;;;;0.70;64.19;98106.69;5238199;28;20061;-70
2023/01/19 00:38:28;;;;;;;21.35;9.85;;;;;;;0.60;65.00;98105.63;5232822;28;20140;-71
2023/01/19 00:42:38;;;;;;;18.40;9.40;;;;;;;0.44;64.51;98119.69;5230833;28;20041;-71
2023/01/19 00:44:28;;;;;;;20.48;9.20;;;;;;;0.24;64.70;98112.34;5225568;28;20154;-71
2023/01/19 00:47:19;;;;;;;21.77;9.52;;;;;;;0.06;65.10;98122.19;5235767;28;20052;-71
2023/01/19 00:50:11;;;;;;;20.80;9.32;;;;;;;0.07;64.97;98116.06;5244623;28;20045;-69
2023/01/19 00:53:01;;;;;;;19.67;9.57;;;;;;;0.01;65.76;98113.03;5220575;28;20554;-71
2023/01/19 00:55:52;;;;;;;19.70;10.00;;;;;;;-0.08;64.50;98115.28;5237949;28;20060;-70
2023/01/19 00:58:43;;;;;;;22.75;9.40;;;;;;;-0.15;64.90;98119.22;5219645;28;20474;-70
2023/01/19 01:01:34;;;;;;;25.42;9.90;;;;;;;-0.25;65.24;98121.56;5231457;28;20358;-72
2023/01/19 01:04:35;;;;;;;20.42;9.73;;;;;;;-0.32;65.56;98122.88;5229506;28;20087;-72
2023/01/19 01:07:25;;;;;;;22.58;9.80;;;;;;;-0.50;64.81;98108.41;5245932;28;20075;-70
2023/01/19 01:10:21;;;;;;;25.73;9.18;;;;;;;-0.45;65.02;98121.16;5227671;28;20135;-71
2023/01/19 01:13:11;;;;;;;21.83;9.77;;;;;;;-0.65;65.01;98102.41;5224075;28;20056;-72
2023/01/19 01:16:14;;;;;;;23.23;10.00;;;;;;;-0.59;65.80;98132.44;5238147;28;20063;-72
2023/01/19 01:19:04;;;;;;;28.52;10.13;;;;;;;-0.69;65.67;98123.53;5230411;28;20477;-72
2023/01/19 01:21:55;;;;;;;23.30;10.70;;;;;;;-0.78;65.37;98115.34;5237666;28;20564;-72
2023/01/19 01:24:45;;;;;;;28.38;11.38;;;;;;;-0.97;66.81;98110.44;5240468;28;20080;-69
2023/01/19 01:27:35;;;;;;;28.50;11.48;;;;;;;-1.01;67.09;98110.72;5222326;28;20134;-70
2023/01/19 01:30:25;;;;;;;30.40;11.70;;;;;;;-0.83;67.54;98127.81;5223041;28;20127;-69
2023/01/19 01:33:15;;;;;;;30.13;12.20;;;;;;;-0.80;67.15;98126.78;5239361;28;20060;-68
2023/01/19 01:36:27;;;;;;;27.80;11.13;;;;;;;-0.88;66.73;98134.22;5225064;28;20408;-72
2023/01/19 01:39:18;;;;;;;28.90;11.90;;;;;;;-1.02;67.22;98122.91;5224320;28;20146;-69
2023/01/19 01:42:16;;;;;;;31.13;11.70;;;;;;;-1.01;67.84;98139.34;5234920;28;20499;-69
2023/01/19 01:45:28;;;;;;;28.55;12.07;;;;;;;-0.95;67.33;98134.59;5224921;28;20053;-69
2023/01/19 01:48:25;;;;;;;33.95;11.57;;;;;;;-1.06;67.44;98126.63;5242503;28;20067;-70
2023/01/19 01:51:32;;;;;;;28.70;11.43;;;;;;;-1.04;67.63;98140.34;5223057;28;20274;-69
2023/01/19 01:54:26;;;;;;;30.10;10.80;;;;;;;-1.09;68.13;98147.63;5236401;28;20049;-70
2023/01/19 01:57:16;;;;;;;25.45;11.15;;;;;;;-0.96;68.56;98143.34;5222995;28;20056;-72
2023/01/19 02:00:07;;;;;;;25.05;10.98;;;;;;;-0.98;67.31;98152.16;5237406;28;20558;-69
2023/01/19 02:02:58;;;;;;;29.83;11.25;;;;;;;-1.06;68.34;98142.22;5233127;28;20045;-69
2023/01/19 02:05:52;;;;;;;29.23;10.98;;;;;;;-1.19;67.99;98141.28;5209300;28;20045;-70
2023/01/19 02:15:17;;;;;;;26.38;11.13;;;;;;;-1.04;69.12;98137.75;5237303;28;20102;-71
2023/01/19 02:18:07;;;;;;;26.55;11.40;;;;;;;-0.97;68.88;98144.25;5235332;28;20253;-69
2023/01/19 02:21:19;;;;;;;24.45;10.82;;;;;;;-1.05;68.44;98141.28;5223359;28;20619;-69
2023/01/19 02:24:10;;;;;;;29.05;12.48;;;;;;;-1.09;69.18;98139.81;5239786;28;20056;-70
2023/01/19 02:27:01;;;;;;;24.88;11.43;;;;;;;-1.15;68.19;98142.78;5208435;28;20221;-70
2023/01/19 02:29:52;;;;;;;25.83;12.00;;;;;;;-1.19;69.62;98138.69;5230365;28;20082;-71
2023/01/19 02:32:42;;;;;;;40.47;11.77;;;;;;;-1.37;68.52;98112.00;5242846;28;20133;-69
2023/01/19 02:35:36;;;;;;;23.98;10.93;;;;;;;-1.29;68.76;98134.94;5227808;28;20060;-68
2023/01/19 02:38:27;;;;;;;25.20;12.25;;;;;;;-1.22;69.15;98142.31;5226009;28;20449;-70
2023/01/19 02:41:21;;;;;;;26.48;11.68;;;;;;;-1.25;69.44;98137.28;5219828;28;20056;-70
2023/01/19 02:44:13;;;;;;;27.03;11.77;;;;;;;-0.98;68.67;98137.38;5224054;28;20060;-69
2023/01/19 02:47:04;;;;;;;37.07;11.27;;;;;;;-1.11;69.04;98141.66;5209336;28;20052;-70
2023/01/19 02:49:59;;;;;;;24.60;11.88;;;;;;;-1.09;68.74;98152.81;5222104;28;20420;-70
2023/01/19 02:52:51;;;;;;;29.27;11.68;;;;;;;-1.29;68.16;98150.53;5221617;28;20585;-69
2023/01/19 02:55:51;;;;;;;24.42;11.90;;;;;;;-1.46;68.64;98133.31;5233942;28;20442;-70
2023/01/19 02:58:57;;;;;;;26.27;11.95;;;;;;;-1.42;68.61;98133.06;5223432;28;20052;-70
2023/01/19 03:02:04;;;;;;;26.65;11.55;;;;;;;-1.39;67.97;98152.00;5222799;28;20177;-70
2023/01/19 03:05:07;;;;;;;29.88;11.38;;;;;;;-1.49;68.20;98142.16;5226277;28;20053;-69
2023/01/19 03:08:36;;;;;;;24.45;11.07;;;;;;;-1.47;68.94;98148.09;5240571;28;20552;-70
2023/01/19 03:11:35;;;;;;;23.90;11.63;;;;;;;-1.39;69.25;98142.47;5228535;28;20064;-71
2023/01/19 03:14:32;;;;;;;27.70;12.00;;;;;;;-1.50;69.51;98137.03;5219112;28;20048;-69
2023/01/19 03:17:24;;;;;;;23.40;11.20;;;;;;;-1.41;68.11;98141.72;5210618;28;20525;-70
2023/01/19 03:20:19;;;;;;;31.25;11.98;;;;;;;-1.38;68.06;98153.69;5216191;28;20049;-70
2023/01/19 03:23:11;;;;;;;26.63;12.77;;;;;;;-1.35;68.22;98161.31;5232749;28;20137;-69
2023/01/19 03:26:03;;;;;;;29.27;12.00;;;;;;;-1.57;68.13;98149.56;5239644;28;20063;-69
2023/01/19 03:28:55;;;;;;;27.50;13.07;;;;;;;-1.39;68.59;98149.41;5225223;28;20041;-70
2023/01/19 03:31:48;;;;;;;29.52;12.85;;;;;;;-1.57;67.95;98146.97;5221702;28;20048;-70
2023/01/19 03:34:41;;;;;;;26.80;11.68;;;;;;;-1.57;68.39;98146.97;5233640;28;20059;-72
2023/01/19 03:37:35;;;;;;;32.92;12.90;;;;;;;-1.64;69.06;98148.25;5226105;28;20486;-72
2023/01/19 03:40:29;;;;;;;25.85;11.75;;;;;;;-1.73;68.91;98152.19;5224874;28;20130;-71
2023/01/19 03:43:22;;;;;;;28.73;11.82;;;;;;;-1.75;68.71;98145.44;5227262;28;20431;-70
2023/01/19 03:46:16;;;;;;;31.15;12.15;;;;;;;-1.74;68.91;98123.72;5219473;28;20048;-70
2023/01/19 03:49:07;;;;;;;28.90;12.65;;;;;;;-1.71;68.71;98150.38;5247375;28;20055;-70
2023/01/19 03:51:58;;;;;;;26.95;12.48;;;;;;;-1.67;68.50;98156.22;5209591;28;20037;-69
2023/01/19 03:54:48;;;;;;;25.02;12.07;;;;;;;-1.70;68.78;98159.00;5234516;28;20052;-72
2023/01/19 03:57:39;;;;;;;32.58;12.57;;;;;;;-1.70;69.04;98164.19;5226312;28;20100;-72
2023/01/19 04:00:29;;;;;;;26.60;12.32;;;;;;;-1.59;69.58;98164.44;5237888;28;20056;-72
2023/01/19 04:03:20;;;;;;;26.25;12.35;;;;;;;-1.62;68.92;98163.75;5226764;28;20071;-71
2023/01/19 04:06:10;;;;;;;30.17;12.68;;;;;;;-1.57;68.44;98161.72;5211015;28;20592;-72
2023/01/19 04:09:01;;;;;;;26.58;12.00;;;;;;;-1.72;68.46;98164.28;5232408;28;20186;-68
2023/01/19 04:11:51;;;;;;;30.23;12.95;;;;;;;-1.78;68.26;98148.22;5221042;28;20521;-72
2023/01/19 04:14:41;;;;;;;31.58;13.95;;;;;;;-1.75;68.50;98174.03;5229021;28;20063;-71
2023/01/19 04:17:31;;;;;;;30.25;12.98;;;;;;;-1.85;68.34;98160.72;5242133;28;20094;-72
2023/01/19 04:20:21;;;;;;;29.08;13.48;;;;;;;-1.94;68.65;98159.47;5239386;28;20068;-71
2023/01/19 04:23:12;;;;;;;27.58;12.82;;;;;;;-1.79;68.30;98180.28;5226132;28;20055;-72
2023/01/19 04:26:07;;;;;;;25.55;12.68;;;;;;;-1.93;68.10;98181.06;5236832;28;20053;-70
2023/01/19 04:28:57;;;;;;;30.48;12.55;;;;;;;-1.95;68.16;98175.97;5224636;28;20513;-72
2023/01/19 04:31:48;;;;;;;35.67;12.57;;;;;;;-1.99;68.10;98182.25;5242402;28;20053;-72
2023/01/19 04:34:37;;;;;;;29.00;12.60;;;;;;;-1.91;68.37;98185.28;5224497;28;20056;-72
2023/01/19 04:37:27;;;;;;;28.65;13.02;;;;;;;-1.93;68.07;98181.91;5241654;28;20137;-71
2023/01/19 04:40:18;;;;;;;27.92;13.10;;;;;;;-2.05;68.18;98171.38;5214453;28;20576;-71
2023/01/19 04:43:08;;;;;;;36.55;12.93;;;;;;;-2.06;67.83;98180.91;5227728;28;20052;-72
2023/01/19 04:45:58;;;;;;;29.48;12.80;;;;;;;-2.07;68.54;98200.03;5230841;28;20055;-72
2023/01/19 04:48:49;;;;;;;26.58;12.30;;;;;;;-2.13;68.66;98185.63;5235588;28;20478;-71
2023/01/19 04:51:39;;;;;;;28.98;11.93;;;;;;;-2.10;68.61;98195.00;5224897;28;20051;-71
2023/01/19 04:54:30;;;;;;;30.58;12.38;;;;;;;-2.16;68.67;98193.56;5240561;28;20537;-71
2023/01/19 04:57:20;;;;;;;30.83;12.60;;;;;;;-2.17;67.96;98196.28;5225989;28;20068;-70
2023/01/19 05:00:11;;;;;;;28.95;12.35;;;;;;;-2.25;67.61;98206.22;5221643;28;20503;-70
2023/01/19 05:03:01;;;;;;;27.20;12.18;;;;;;;-2.32;67.68;98200.53;5224051;28;20045;-72
2023/01/19 05:05:52;;;;;;;26.92;11.30;;;;;;;-2.33;68.04;98203.22;5225634;28;20053;-72
2023/01/19 05:08:42;;;;;;;27.25;11.82;;;;;;;-2.39;67.36;98200.00;5232533;28;20079;-71
2023/01/19 05:11:35;;;;;;;31.33;12.40;;;;;;;-2.58;67.84;98172.53;5238495;28;20048;-70
2023/01/19 05:14:25;;;;;;;28.77;12.35;;;;;;;-2.23;68.46;98204.38;5220830;28;20048;-70
2023/01/19 05:17:15;;;;;;;31.33;13.23;;;;;;;-2.40;69.75;98171.56;5225044;28;20760;-72
2023/01/19 05:20:06;;;;;;;30.95;13.20;;;;;;;-1.94;69.19;98205.41;5233791;28;20076;-71
2023/01/19 05:22:56;;;;;;;29.63;12.98;;;;;;;-2.01;69.63;98198.88;5225772;28;20068;-72
2023/01/19 05:25:47;;;;;;;30.10;14.35;;;;;;;-1.86;69.63;98210.16;5239148;28;20054;-70
2023/01/19 05:28:37;;;;;;;34.20;14.30;;;;;;;-1.82;69.01;98209.06;5223177;28;20541;-72
2023/01/19 05:31:28;;;;;;;32.15;13.57;;;;;;;-1.82;69.59;98219.44;5244567;28;20209;-71
2023/01/19 05:34:19;;;;;;;29.17;13.90;;;;;;;-1.76;68.93;98214.75;5233173;28;20147;-71
2023/01/19 05:37:09;;;;;;;31.67;12.75;;;;;;;-2.03;69.21;98205.91;5225616;28;20059;-71
2023/01/19 05:40:00;;;;;;;31.00;13.30;;;;;;;-2.11;68.57;98202.91;5223494;28;20056;-71
2023/01/19 05:42:52;;;;;;;32.22;13.95;;;;;;;-2.04;68.40;98209.44;5222994;28;20102;-70
2023/01/19 05:45:42;;;;;;;34.72;13.23;;;;;;;-2.04;68.67;98205.06;5228057;28;20054;-71
2023/01/19 05:48:32;;;;;;;27.80;13.45;;;;;;;-2.05;69.09;98207.72;5222947;28;20135;-71
2023/01/19 05:51:21;;;;;;;27.30;13.18;;;;;;;-1.97;68.88;98228.94;5238375;28;20066;-70
2023/01/19 05:54:16;;;;;;;26.75;13.23;;;;;;;-2.01;68.69;98224.84;5236469;28;20048;-72
2023/01/19 05:57:07;;;;;;;31.88;13.23;;;;;;;-1.74;68.98;98238.06;5221531;28;20052;-72
2023/01/19 05:59:57;;;;;;;27.92;13.88;;;;;;;-1.68;69.65;98229.94;5222383;28;20521;-72
2023/01/19 06:02:48;;;;;;;31.85;13.32;;;;;;;-1.72;68.60;98236.22;5223285;28;20182;-71
2023/01/19 06:05:38;;;;;;;29.83;13.77;;;;;;;-1.92;68.58;98224.31;5226194;28;20084;-69
2023/01/19 06:08:28;;;;;;;31.25;14.20;;;;;;;-1.93;68.50;98244.25;5244049;28;20041;-68
2023/01/19 06:11:19;;;;;;;30.98;13.65;;;;;;;-1.98;68.16;98241.09;5218304;28;20075;-71
2023/01/19 06:14:10;;;;;;;32.10;13.02;;;;;;;-2.04;68.21;98245.78;5209156;28;20074;-71
2023/01/19 06:17:00;;;;;;;30.67;12.70;;;;;;;-2.10;68.30;98248.72;5222469;28;20198;-69
2023/01/19 06:19:50;;;;;;;29.50;12.27;;;;;;;-2.18;67.61;98249.13;5223578;28;20049;-71
2023/01/19 06:22:41;;;;;;;32.53;13.00;;;;;;;-2.24;68.33;98242.50;5231995;28;20473;-71
2023/01/19 06:25:31;;;;;;;29.88;13.00;;;;;;;-2.27;68.18;98255.66;5223760;28;20068;-70
2023/01/19 06:28:21;;;;;;;28.90;13.32;;;;;;;-2.22;68.58;98240.69;5239165;28;20126;-70
2023/01/19 06:31:11;;;;;;;29.17;13.57;;;;;;;-2.00;68.54;98268.91;5243392;28;20059;-71
2023/01/19 06:34:02;;;;;;;32.90;14.40;;;;;;;-1.86;69.22;98257.75;5208402;28;20052;-70
2023/01/19 06:36:52;;;;;;;29.38;13.30;;;;;;;-1.71;69.22;98269.91;5221106;28;20538;-69
2023/01/19 06:39:44;;;;;;;31.20;14.35;;;;;;;-1.55;69.50;98254.31;5221589;28;20051;-69
2023/01/19 06:42:34;;;;;;;33.30;14.90;;;;;;;-1.46;69.60;98279.78;5221872;28;20052;-70
2023/01/19 06:45:24;;;;;;;34.10;14.77;;;;;;;-1.32;69.63;98265.19;5222507;28;20064;-70
2023/01/19 06:48:16;;;;;;;38.97;15.60;;;;;;;-1.16;68.64;98272.91;5225011;28;20059;-71
2023/01/19 06:51:06;;;;;;;30.63;14.32;;;;;;;-1.16;69.55;98262.50;5234257;28;20045;-72
2023/01/19 06:53:57;;;;;;;40.00;15.32;;;;;;;-1.13;69.37;98264.94;5230013;28;20048;-70
2023/01/19 06:56:47;;;;;;;36.38;15.93;;;;;;;-1.03;69.69;98264.31;5224980;28;20406;-69
2023/01/19 06:59:37;;;;;;;34.58;15.35;;;;;;;-0.92;69.70;98257.66;5221213;28;20113;-70
2023/01/19 07:02:27;;;;;;;38.08;16.65;;;;;;;-0.80;68.35;98264.72;5206223;28;20432;-70
2023/01/19 07:05:18;;;;;;;38.95;16.52;;;;;;;-0.90;67.95;98261.81;5210718;28;20240;-68
2023/01/19 07:08:08;;;;;;;35.15;15.98;;;;;;;-0.96;68.59;98250.03;5209557;28;20052;-68
2023/01/19 07:11:07;;;;;;;39.67;15.75;;;;;;;-0.89;68.58;98262.66;5204831;28;20186;-68
2023/01/19 07:14:18;;;;;;;39.85;15.80;;;;;;;-1.05;67.84;98263.56;5210798;28;20095;-70
2023/01/19 07:17:09;;;;;;;34.33;15.68;;;;;;;-1.20;67.93;98264.44;5208646;28;20048;-68
2023/01/19 07:19:59;;;;;;;36.22;15.45;;;;;;;-1.37;67.80;98249.81;5204958;28;20112;-69
2023/01/19 07:22:55;;;;;;;36.88;14.43;;;;;;;-1.28;68.11;98266.66;5204267;28;20104;-68
2023/01/19 07:25:45;;;;;;;34.88;15.55;;;;;;;-1.24;67.71;98269.00;5205342;28;20060;-69
2023/01/19 07:28:36;;;;;;;35.17;14.45;;;;;;;-1.33;67.94;98272.09;5199308;28;20061;-69
2023/01/19 07:31:26;;;;;;;34.35;16.13;;;;;;;-1.37;68.07;98273.22;5193434;28;20052;-69
2023/01/19 07:34:16;;;;;;;39.45;15.43;;;;;;;-1.39;67.57;98274.22;5211183;28;20063;-72
2023/01/19 07:37:07;;;;;;;35.17;14.85;;;;;;;-1.47;67.41;98267.69;5206248;28;20154;-71
2023/01/19 07:39:57;;;;;;;34.50;16.10;;;;;;;-1.45;67.76;98270.22;5207934;28;20226;-68
2023/01/19 07:42:49;;;;;;;37.65;17.48;;;;;;;-1.45;68.28;98270.22;5205914;28;20048;-68
2023/01/19 07:45:40;;;;;;;42.13;16.10;;;;;;;-1.54;67.41;98274.16;5210673;28;20459;-70
2023/01/19 07:48:30;;;;;;;42.03;16.90;;;;;;;-1.62;67.00;98288.50;5208075;28;20675;-67
2023/01/19 07:51:21;;;;;;;39.03;17.42;;;;;;;-1.64;66.85;98292.97;5199683;28;20114;-69
2023/01/19 07:54:11;;;;;;;36.15;16.83;;;;;;;-1.53;68.14;98293.19;5202963;28;20044;-68
2023/01/19 07:57:01;;;;;;;46.22;19.30;;;;;;;-1.33;68.51;98289.47;5200472;28;20060;-69
2023/01/19 07:59:52;;;;;;;41.67;18.45;;;;;;;-1.31;68.86;98298.88;5205419;28;20759;-69
2023/01/19 08:02:42;;;;;;;44.17;19.73;;;;;;;-1.23;68.03;98301.88;5203824;28;20048;-70
2023/01/19 08:05:32;;;;;;;40.70;17.60;;;;;;;-1.09;68.89;98305.44;5211937;28;20084;-68
2023/01/19 08:08:22;;;;;;;42.10;18.05;;;;;;;-1.05;68.01;98305.19;5208400;28;20506;-68
2023/01/19 08:11:12;;;;;;;41.83;17.25;;;;;;;-0.95;69.10;98305.50;5214496;28;20056;-68
2023/01/19 08:14:02;;;;;;;37.15;17.80;;;;;;;-0.90;68.34;98303.47;5210021;28;20076;-68
2023/01/19 08:17:00;;;;;;;41.53;17.88;;;;;;;-0.57;68.17;98311.06;5209620;28;20190;-68
2023/01/19 08:19:51;;;;;;;40.15;15.95;;;;;;;-0.64;68.41;98307.16;5211190;28;20436;-68
2023/01/19 08:22:41;;;;;;;43.72;17.25;;;;;;;-0.40;67.68;98293.59;5205466;28;20056;-68
2023/01/19 08:25:43;;;;;;;35.55;16.52;;;;;;;-0.30;67.83;98303.38;5202551;28;20573;-68
2023/01/19 08:28:33;;;;;;;41.55;17.70;;;;;;;-0.30;67.80;98312.94;5203391;28;20045;-69
2023/01/19 08:31:25;;;;;;;42.25;17.48;;;;;;;0.03;66.03;98307.44;5204773;28;20375;-68
2023/01/19 08:34:15;;;;;;;35.42;16.83;;;;;;;-0.02;67.12;98315.56;5203372;28;20067;-68
2023/01/19 08:37:05;;;;;;;39.38;16.55;;;;;;;0.05;66.31;98315.19;5217759;28;20053;-68
2023/01/19 08:39:56;;;;;;;38.17;17.30;;;;;;;0.17;66.86;98314.44;5212082;28;20056;-68
2023/01/19 08:42:46;;;;;;;37.90;15.90;;;;;;;0.37;66.34;98321.00;5198528;28;20454;-68
2023/01/19 08:45:40;;;;;;;40.33;16.30;;;;;;;0.29;66.71;98316.25;5216774;28;20079;-68
2023/01/19 08:48:30;;;;;;;40.80;16.95;;;;;;;0.28;66.90;98303.31;5213691;28;20073;-68
2023/01/19 08:51:21;;;;;;;35.30;15.73;;;;;;;0.53;66.26;98320.84;5207408;28;20099;-68
2023/01/19 08:54:12;;;;;;;37.22;16.42;;;;;;;0.56;66.71;98325.88;5206789;28;20105;-68
2023/01/19 08:57:02;;;;;;;36.38;16.55;;;;;;;0.55;65.69;98305.94;5202808;28;20113;-69
2023/01/19 08:59:52;;;;;;;40.38;17.50;;;;;;;0.74;65.49;98334.31;5187844;28;20206;-68
2023/01/19 09:02:42;;;;;;;38.25;16.77;;;;;;;0.81;65.82;98339.03;5201650;28;20178;-69
2023/01/19 09:05:36;;;;;;;35.28;14.80;;;;;;;0.74;65.89;98332.53;5209893;28;20137;-68
2023/01/19 09:08:26;;;;;;;;;;;;;;;0.93;65.82;98338.25;5223229;28;20090;-68
2023/01/19 09:11:16;;;;;;;34.42;15.50;;;;;;;1.75;64.42;98333.66;5209712;28;20421;-68
2023/01/19 09:14:07;;;;;;;32.83;15.48;;;;;;;1.60;64.05;98340.78;5212370;28;20056;-68
2023/01/19 09:16:58;;;;;;;30.63;16.55;;;;;;;1.50;64.52;98334.50;5208172;28;20073;-69
2023/01/19 09:19:48;;;;;;;31.27;14.10;;;;;;;1.49;64.84;98331.97;5205937;28;20063;-68
2023/01/19 09:22:38;;;;;;;33.92;15.30;;;;;;;1.66;63.90;98331.69;5196020;28;20049;-67
2023/01/19 09:25:28;;;;;;;38.25;16.73;;;;;;;1.37;63.24;98326.63;5205524;28;20083;-68
2023/01/19 09:28:18;;;;;;;39.40;16.20;;;;;;;1.30;64.24;98322.78;5202685;28;20192;-68
2023/01/19 09:31:09;;;;;;;35.00;15.00;;;;;;;1.49;64.45;98339.81;5221788;28;20072;-68
2023/01/19 09:33:59;;;;;;;33.42;15.05;;;;;;;1.50;64.20;98342.34;5210824;28;20052;-68
2023/01/19 09:36:49;;;;;;;33.92;15.00;;;;;;;1.67;63.48;98335.13;5209733;28;20044;-68
2023/01/19 09:39:39;;;;;;;36.53;16.33;;;;;;;1.65;63.53;98345.66;5210259;28;20076;-68
2023/01/19 09:42:41;;;;;;;28.98;14.13;;;;;;;1.68;64.15;98347.25;5207860;28;20143;-68
2023/01/19 09:45:40;;;;;;;32.17;15.13;;;;;;;1.65;63.69;98332.59;5208133;28;20079;-68
2023/01/19 09:48:50;;;;;;;29.65;13.77;;;;;;;1.75;63.38;98336.25;5207785;28;20560;-68
2023/01/19 09:51:45;;;;;;;27.13;13.73;;;;;;;1.67;63.50;98343.81;5203361;28;20060;-68
2023/01/19 09:54:43;;;;;;;33.85;14.52;;;;;;;1.67;63.64;98330.75;5207157;28;20058;-69
2023/01/19 09:57:33;;;;;;;30.70;13.43;;;;;;;1.63;64.23;98331.91;5207178;28;20052;-69
2023/01/19 10:00:26;;;;;;;30.88;13.60;;;;;;;1.89;63.58;98327.50;5206150;28;20049;-68
2023/01/19 10:03:19;;;;;;;28.67;13.10;;;;;;;1.88;63.06;98318.78;5195316;28;20507;-68
2023/01/19 10:06:12;;;;;;;30.58;13.82;;;;;;;2.10;63.36;98325.16;5214715;28;20601;-68
2023/01/19 10:09:22;;;;;;;27.60;13.18;;;;;;;2.18;63.15;98322.84;5208949;28;20144;-68
2023/01/19 10:13:01;;;;;;;26.77;12.32;;;;;;;2.39;62.97;98324.91;5213128;28;20049;-68
2023/01/19 10:16:16;;;;;;;26.40;11.80;;;;;;;2.58;63.21;98327.88;5217058;28;20075;-68
2023/01/19 10:19:29;;;;;;;23.83;11.45;;;;;;;2.80;60.88;98324.53;5197084;28;20801;-69
2023/01/19 10:22:27;;;;;;;23.95;11.30;;;;;;;2.83;60.48;98317.28;5203896;28;20111;-69
2023/01/19 10:25:23;;;;;;;23.42;10.10;;;;;;;2.91;60.17;98310.66;5196466;28;20086;-68
2023/01/19 10:28:18;;;;;;;23.95;10.98;;;;;;;2.86;60.13;98307.56;5222058;28;21412;-68
2023/01/19 10:31:10;;;;;;;24.58;10.02;;;;;;;2.78;60.76;98316.81;5214052;28;20068;-68
2023/01/19 10:34:00;;;;;;;30.35;11.00;;;;;;;3.12;60.78;98319.56;5208362;28;20323;-68
2023/01/19 10:36:57;;;;;;;29.45;12.30;;;;;;;3.19;60.21;98314.72;5221197;28;20088;-68
2023/01/19 10:39:54;;;;;;;21.60;11.10;;;;;;;3.13;61.07;98309.94;5215674;28;20064;-68
2023/01/19 10:42:44;;;;;;;19.33;9.80;;;;;;;3.47;60.17;98318.72;5211678;28;20702;-68
2023/01/19 10:45:34;;;;;;;20.60;10.13;;;;;;;3.45;60.48;98328.50;5212894;28;20064;-69
2023/01/19 10:48:26;;;;;;;22.90;9.90;;;;;;;3.36;61.19;98322.13;5206896;28;20051;-68
2023/01/19 10:51:17;;;;;;;23.50;10.40;;;;;;;3.30;60.99;98317.34;5199751;28;20076;-69
2023/01/19 10:54:12;;;;;;;23.98;10.63;;;;;;;3.35;60.91;98324.91;5201814;28;20067;-69
2023/01/19 10:57:06;;;;;;;23.50;11.70;;;;;;;3.43;61.16;98323.34;5204775;28;20537;-68
2023/01/19 10:59:56;;;;;;;26.40;11.55;;;;;;;3.46;61.86;98325.75;5201431;28;20059;-68
2023/01/19 11:02:50;;;;;;;27.10;12.77;;;;;;;3.43;60.95;98323.34;5207999;28;20052;-68
2023/01/19 11:05:40;;;;;;;19.00;9.52;;;;;;;3.48;60.62;98320.41;5205909;28;20134;-68
2023/01/19 11:08:31;;;;;;;17.00;7.82;;;;;;;3.42;59.80;98321.69;5207092;28;20060;-68
2023/01/19 11:11:23;;;;;;;19.23;6.97;;;;;;;3.46;58.50;98328.38;5204743;28;20060;-68
2023/01/19 11:14:17;;;;;;;15.88;7.65;;;;;;;3.56;59.66;98323.25;5209925;28;20529;-68
2023/01/19 11:17:17;;;;;;;17.48;6.90;;;;;;;3.97;57.70;98314.00;5211023;28;20126;-68
2023/01/19 11:20:19;;;;;;;19.83;7.57;;;;;;;3.94;58.78;98306.38;5214964;28;20056;-68
2023/01/19 11:23:26;;;;;;;16.05;7.32;;;;;;;3.54;57.86;98288.47;5219149;28;20075;-68
2023/01/19 11:26:41;;;;;;;18.98;7.03;;;;;;;3.74;58.58;98305.28;5220556;28;20230;-68
2023/01/19 11:29:32;;;;;;;18.35;6.55;;;;;;;3.98;58.75;98292.09;5214515;28;20068;-68
2023/01/19 11:32:26;;;;;;;15.65;7.35;;;;;;;4.21;58.82;98296.38;5212045;28;20057;-67
2023/01/19 11:35:45;;;;;;;13.95;6.72;;;;;;;4.70;56.52;98296.84;5213390;28;20048;-69
2023/01/19 11:38:42;;;;;;;12.77;5.72;;;;;;;4.59;58.24;98302.97;5209916;28;20135;-68
2023/01/19 11:41:36;;;;;;;11.32;6.47;;;;;;;4.07;57.42;98301.00;5212857;28;20052;-68
2023/01/19 11:44:32;;;;;;;14.32;6.03;;;;;;;4.13;57.34;98293.50;5211128;28;20083;-68
2023/01/19 11:47:37;;;;;;;12.60;5.88;;;;;;;4.40;56.31;98289.63;5207922;28;20521;-69
2023/01/19 11:50:31;;;;;;;11.40;5.88;;;;;;;4.31;57.37;98290.38;5208979;28;20103;-68
2023/01/19 11:53:28;;;;;;;11.73;5.75;;;;;;;4.20;58.19;98291.22;5214754;28;20060;-68
2023/01/19 11:56:22;;;;;;;8.30;5.30;;;;;;;4.21;58.04;98285.88;5217290;28;20056;-67
2023/01/19 11:59:13;;;;;;;10.55;5.50;;;;;;;4.29;57.37;98290.50;5213737;28;20055;-68
2023/01/19 12:02:16;;;;;;;12.15;6.50;;;;;;;4.24;58.13;98288.25;5221724;28;20079;-69
2023/01/19 12:05:13;;;;;;;14.35;6.45;;;;;;;3.13;59.54;98305.53;5225366;28;20109;-68
2023/01/19 12:08:08;;;;;;;12.10;6.20;;;;;;;3.31;59.92;98305.91;5206368;28;20056;-68
2023/01/19 12:11:01;;;;;;;14.32;6.57;;;;;;;3.37;60.34;98307.25;5225559;28;20056;-69
2023/01/19 12:13:52;;;;;;;11.55;6.68;;;;;;;3.56;59.94;98304.91;5219364;28;20515;-69
2023/01/19 12:16:43;;;;;;;15.65;6.72;;;;;;;3.46;60.49;98303.94;5224629;28;20609;-69
2023/01/19 12:19:49;;;;;;;15.32;7.35;;;;;;;3.42;59.34;98308.59;5201972;28;20612;-68
2023/01/19 12:22:49;;;;;;;12.50;7.07;;;;;;;3.04;60.94;98300.94;5219067;28;20148;-68
2023/01/19 12:25:59;;;;;;;16.95;7.63;;;;;;;3.61;60.34;98320.28;5211725;28;20061;-69
2023/01/19 12:28:51;;;;;;;17.17;8.35;;;;;;;3.54;60.73;98317.28;5221075;28;20052;-69
2023/01/19 12:31:41;;;;;;;16.52;7.22;;;;;;;3.25;61.51;98324.75;5223031;28;20049;-68
2023/01/19 12:34:54;;;;;;;13.98;7.03;;;;;;;2.69;63.44;98325.31;5215488;28;20045;-68
2023/01/19 12:37:44;;;;;;;16.17;7.13;;;;;;;2.76;63.76;98320.47;5196393;28;20118;-68
2023/01/19 12:40:35;;;;;;;13.88;6.65;;;;;;;3.10;63.38;98318.84;5210839;28;20134;-69
2023/01/19 12:43:25;;;;;;;13.57;7.70;;;;;;;2.89;63.41;98315.19;5208325;28;20142;-69
2023/01/19 12:46:27;;;;;;;13.65;7.72;;;;;;;3.05;62.27;98326.22;5206799;28;20053;-67
2023/01/19 12:49:32;;;;;;;16.88;7.53;;;;;;;3.16;63.53;98309.69;5203836;28;20072;-68
2023/01/19 12:52:48;;;;;;;;;;;;;;;3.27;62.79;98323.66;5202639;28;20072;-67
2023/01/19 12:55:45;;;;;;;14.75;7.57;;;;;;;3.03;64.43;98328.09;5205995;28;19929;-68
2023/01/19 12:58:35;;;;;;;17.38;7.95;;;;;;;3.30;63.99;98327.84;5211122;28;20061;-68
2023/01/19 13:01:25;;;;;;;17.40;7.53;;;;;;;3.04;63.83;98329.75;5208921;28;20061;-67
2023/01/19 13:04:31;;;;;;;13.20;7.40;;;;;;;3.21;64.06;98320.66;5218497;28;20041;-68
2023/01/19 13:07:21;;;;;;;16.52;8.05;;;;;;;3.34;64.49;98328.44;5210815;28;20084;-67
2023/01/19 13:10:48;;;;;;;19.10;8.20;;;;;;;3.58;63.67;98331.84;5212792;28;20091;-68
2023/01/19 13:13:41;;;;;;;21.70;10.02;;;;;;;3.43;63.99;98317.28;5223713;28;20081;-69
2023/01/19 13:16:34;;;;;;;14.73;7.85;;;;;;;3.51;64.52;98320.16;5226018;28;20049;-68
2023/01/19 13:19:36;;;;;;;17.30;8.95;;;;;;;3.29;64.66;98316.53;5204859;28;20206;-69
2023/01/19 13:22:45;;;;;;;17.17;9.02;;;;;;;3.53;65.10;98321.69;5211140;28;20048;-68
2023/01/19 13:25:35;;;;;;;18.95;8.88;;;;;;;3.19;65.06;98319.94;5202639;28;20570;-68
2023/01/19 13:28:34;;;;;;;18.73;9.43;;;;;;;3.59;63.86;98309.94;5202100;28;20514;-68
2023/01/19 13:31:24;;;;;;;15.65;8.40;;;;;;;3.66;62.92;98311.13;5204258;28;20545;-68
2023/01/19 13:34:18;;;;;;;22.75;10.18;;;;;;;3.49;64.45;98316.81;5210094;28;20060;-68